sensor_id;sensor_type;location;lat;lon;timestamp;P1;durP1;ratioP1;P2;durP2;ratioP2
77944;SDS011;67142;47.404;-1.384;2023-07-31T00:02:22;19.60;;;15.85;;
77944;SDS011;67142;47.404;-1.384;2023-07-31T00:04:48;20.83;;;16.55;;
77944;SDS011;67142;47.404;-1.384;2023-07-31T00:07:14;20.03;;;16.47;;
77944;SDS011;67142;47.404;-1.384;2023-07-31T00:09:40;21.77;;;16.20;;
77944;SDS011;67142;47.404;-1.384;2023-07-31T00:12:06;23.20;;;16.30;;
77944;SDS011;67142;47.404;-1.384;2023-07-31T00:14:32;19.50;;;16.63;;
77944;SDS011;67142;47.404;-1.384;2023-07-31T00:16:58;20.60;;;16.33;;
77944;SDS011;67142;47.404;-1.384;2023-07-31T00:19:24;23.65;;;16.10;;
77944;SDS011;67142;47.404;-1.384;2023-07-31T00:21:50;21.10;;;16.05;;
77944;SDS011;67142;47.404;-1.384;2023-07-31T00:24:16;21.75;;;16.10;;
77944;SDS011;67142;47.404;-1.384;2023-07-31T00:26:42;21.67;;;16.15;;
77944;SDS011;67142;47.404;-1.384;2023-07-31T00:29:09;21.48;;;16.08;;
77944;SDS011;67142;47.404;-1.384;2023-07-31T00:31:35;21.52;;;16.15;;
77944;SDS011;67142;47.404;-1.384;2023-07-31T00:34:01;23.95;;;16.63;;
77944;SDS011;67142;47.404;-1.384;2023-07-31T00:36:27;18.67;;;16.03;;
77944;SDS011;67142;47.404;-1.384;2023-07-31T00:38:53;23.20;;;16.90;;
77944;SDS011;67142;47.404;-1.384;2023-07-31T00:41:19;22.70;;;17.15;;
77944;SDS011;67142;47.404;-1.384;2023-07-31T00:43:45;22.27;;;16.60;;
77944;SDS011;67142;47.404;-1.384;2023-07-31T00:46:11;21.50;;;16.40;;
77944;SDS011;67142;47.404;-1.384;2023-07-31T00:48:37;21.35;;;16.90;;
77944;SDS011;67142;47.404;-1.384;2023-07-31T00:51:04;19.65;;;17.20;;
77944;SDS011;67142;47.404;-1.384;2023-07-31T00:53:30;20.58;;;17.00;;
77944;SDS011;67142;47.404;-1.384;2023-07-31T00:55:57;20.98;;;16.90;;
77944;SDS011;67142;47.404;-1.384;2023-07-31T00:58:23;21.37;;;17.40;;
77944;SDS011;67142;47.404;-1.384;2023-07-31T01:00:49;20.52;;;17.40;;
77944;SDS011;67142;47.404;-1.384;2023-07-31T01:03:16;20.90;;;17.27;;
77944;SDS011;67142;47.404;-1.384;2023-07-31T01:08:34;18.80;;;16.80;;
77944;SDS011;67142;47.404;-1.384;2023-07-31T01:11:19;22.38;;;16.52;;
77944;SDS011;67142;47.404;-1.384;2023-07-31T01:13:47;21.33;;;16.90;;
77944;SDS011;67142;47.404;-1.384;2023-07-31T01:16:13;21.67;;;16.20;;
77944;SDS011;67142;47.404;-1.384;2023-07-31T01:18:39;22.90;;;16.83;;
77944;SDS011;67142;47.404;-1.384;2023-07-31T01:26:36;22.02;;;16.08;;
77944;SDS011;67142;47.404;-1.384;2023-07-31T01:29:08;19.85;;;16.00;;
77944;SDS011;67142;47.404;-1.384;2023-07-31T01:31:36;23.00;;;16.73;;
77944;SDS011;67142;47.404;-1.384;2023-07-31T01:34:02;22.52;;;16.25;;
77944;SDS011;67142;47.404;-1.384;2023-07-31T01:36:30;19.57;;;16.20;;
77944;SDS011;67142;47.404;-1.384;2023-07-31T01:38:59;19.58;;;16.42;;
77944;SDS011;67142;47.404;-1.384;2023-07-31T01:41:26;20.55;;;16.45;;
77944;SDS011;67142;47.404;-1.384;2023-07-31T01:43:52;19.30;;;16.05;;
77944;SDS011;67142;47.404;-1.384;2023-07-31T01:46:18;21.55;;;16.60;;
77944;SDS011;67142;47.404;-1.384;2023-07-31T01:48:44;22.95;;;16.80;;
77944;SDS011;67142;47.404;-1.384;2023-07-31T01:51:10;20.63;;;16.80;;
77944;SDS011;67142;47.404;-1.384;2023-07-31T01:53:36;20.23;;;16.63;;
77944;SDS011;67142;47.404;-1.384;2023-07-31T01:56:02;22.42;;;17.20;;
77944;SDS011;67142;47.404;-1.384;2023-07-31T01:58:28;19.80;;;16.40;;
77944;SDS011;67142;47.404;-1.384;2023-07-31T02:00:54;23.95;;;16.95;;
77944;SDS011;67142;47.404;-1.384;2023-07-31T02:03:20;21.00;;;16.70;;
77944;SDS011;67142;47.404;-1.384;2023-07-31T02:05:49;21.13;;;16.88;;
77944;SDS011;67142;47.404;-1.384;2023-07-31T02:08:15;24.10;;;17.00;;
77944;SDS011;67142;47.404;-1.384;2023-07-31T02:10:42;22.48;;;17.10;;
77944;SDS011;67142;47.404;-1.384;2023-07-31T02:13:08;22.80;;;17.23;;
77944;SDS011;67142;47.404;-1.384;2023-07-31T02:15:34;24.55;;;17.90;;
77944;SDS011;67142;47.404;-1.384;2023-07-31T02:18:00;21.95;;;16.45;;
77944;SDS011;67142;47.404;-1.384;2023-07-31T02:20:26;19.97;;;16.60;;
77944;SDS011;67142;47.404;-1.384;2023-07-31T02:22:52;18.25;;;16.20;;
77944;SDS011;67142;47.404;-1.384;2023-07-31T02:25:18;21.25;;;16.98;;
77944;SDS011;67142;47.404;-1.384;2023-07-31T02:27:44;20.83;;;16.73;;
77944;SDS011;67142;47.404;-1.384;2023-07-31T02:30:10;19.83;;;16.35;;
77944;SDS011;67142;47.404;-1.384;2023-07-31T02:32:36;20.98;;;16.73;;
77944;SDS011;67142;47.404;-1.384;2023-07-31T02:35:02;22.17;;;16.13;;
77944;SDS011;67142;47.404;-1.384;2023-07-31T02:37:28;21.50;;;17.05;;
77944;SDS011;67142;47.404;-1.384;2023-07-31T02:39:54;20.92;;;16.30;;
77944;SDS011;67142;47.404;-1.384;2023-07-31T02:42:20;21.75;;;16.42;;
77944;SDS011;67142;47.404;-1.384;2023-07-31T02:44:47;20.27;;;16.53;;
77944;SDS011;67142;47.404;-1.384;2023-07-31T02:47:13;23.33;;;16.57;;
77944;SDS011;67142;47.404;-1.384;2023-07-31T02:49:39;22.60;;;17.50;;
77944;SDS011;67142;47.404;-1.384;2023-07-31T02:52:05;21.73;;;17.60;;
77944;SDS011;67142;47.404;-1.384;2023-07-31T02:54:31;23.02;;;17.40;;
77944;SDS011;67142;47.404;-1.384;2023-07-31T02:56:57;23.77;;;16.63;;
77944;SDS011;67142;47.404;-1.384;2023-07-31T02:59:23;26.00;;;17.20;;
77944;SDS011;67142;47.404;-1.384;2023-07-31T03:01:50;25.15;;;17.38;;
77944;SDS011;67142;47.404;-1.384;2023-07-31T03:04:16;21.13;;;16.97;;
77944;SDS011;67142;47.404;-1.384;2023-07-31T03:06:42;23.58;;;17.40;;
77944;SDS011;67142;47.404;-1.384;2023-07-31T03:09:08;22.70;;;16.58;;
77944;SDS011;67142;47.404;-1.384;2023-07-31T03:11:34;23.60;;;17.17;;
77944;SDS011;67142;47.404;-1.384;2023-07-31T03:14:00;21.63;;;16.95;;
77944;SDS011;67142;47.404;-1.384;2023-07-31T03:16:26;22.60;;;16.83;;
77944;SDS011;67142;47.404;-1.384;2023-07-31T03:18:52;21.02;;;17.55;;
77944;SDS011;67142;47.404;-1.384;2023-07-31T03:21:18;23.03;;;17.40;;
77944;SDS011;67142;47.404;-1.384;2023-07-31T03:23:44;25.67;;;17.63;;
77944;SDS011;67142;47.404;-1.384;2023-07-31T03:26:10;21.17;;;17.25;;
77944;SDS011;67142;47.404;-1.384;2023-07-31T03:28:36;21.95;;;16.83;;
77944;SDS011;67142;47.404;-1.384;2023-07-31T03:31:02;23.38;;;16.60;;
77944;SDS011;67142;47.404;-1.384;2023-07-31T03:33:29;24.50;;;16.70;;
77944;SDS011;67142;47.404;-1.384;2023-07-31T03:35:55;22.92;;;16.70;;
77944;SDS011;67142;47.404;-1.384;2023-07-31T03:38:21;21.73;;;15.98;;
77944;SDS011;67142;47.404;-1.384;2023-07-31T03:40:47;22.27;;;16.95;;
77944;SDS011;67142;47.404;-1.384;2023-07-31T03:43:13;23.93;;;17.33;;
77944;SDS011;67142;47.404;-1.384;2023-07-31T03:45:39;22.70;;;16.73;;
77944;SDS011;67142;47.404;-1.384;2023-07-31T03:48:05;24.67;;;16.67;;
77944;SDS011;67142;47.404;-1.384;2023-07-31T03:50:32;22.53;;;16.47;;
77944;SDS011;67142;47.404;-1.384;2023-07-31T03:52:58;22.92;;;16.52;;
77944;SDS011;67142;47.404;-1.384;2023-07-31T03:55:24;21.98;;;16.25;;
77944;SDS011;67142;47.404;-1.384;2023-07-31T03:57:50;21.45;;;16.45;;
77944;SDS011;67142;47.404;-1.384;2023-07-31T04:00:16;25.67;;;16.67;;
77944;SDS011;67142;47.404;-1.384;2023-07-31T04:02:42;25.42;;;16.50;;
77944;SDS011;67142;47.404;-1.384;2023-07-31T04:05:08;21.48;;;16.83;;
77944;SDS011;67142;47.404;-1.384;2023-07-31T04:07:35;22.02;;;16.23;;
77944;SDS011;67142;47.404;-1.384;2023-07-31T04:10:01;23.90;;;16.65;;
77944;SDS011;67142;47.404;-1.384;2023-07-31T04:12:28;22.80;;;17.00;;
77944;SDS011;67142;47.404;-1.384;2023-07-31T04:14:54;20.88;;;16.55;;
77944;SDS011;67142;47.404;-1.384;2023-07-31T04:17:20;22.13;;;16.20;;
77944;SDS011;67142;47.404;-1.384;2023-07-31T04:19:46;20.97;;;15.40;;
77944;SDS011;67142;47.404;-1.384;2023-07-31T04:22:12;26.05;;;16.48;;
77944;SDS011;67142;47.404;-1.384;2023-07-31T04:24:38;22.13;;;16.15;;
77944;SDS011;67142;47.404;-1.384;2023-07-31T04:27:04;24.02;;;15.77;;
77944;SDS011;67142;47.404;-1.384;2023-07-31T04:29:30;24.80;;;15.40;;
77944;SDS011;67142;47.404;-1.384;2023-07-31T04:31:56;22.73;;;16.00;;
77944;SDS011;67142;47.404;-1.384;2023-07-31T04:34:22;21.38;;;15.95;;
77944;SDS011;67142;47.404;-1.384;2023-07-31T04:36:48;23.00;;;17.13;;
77944;SDS011;67142;47.404;-1.384;2023-07-31T04:39:14;22.57;;;15.50;;
77944;SDS011;67142;47.404;-1.384;2023-07-31T04:41:40;24.10;;;16.13;;
77944;SDS011;67142;47.404;-1.384;2023-07-31T04:44:06;23.60;;;15.90;;
77944;SDS011;67142;47.404;-1.384;2023-07-31T04:46:33;21.60;;;16.45;;
77944;SDS011;67142;47.404;-1.384;2023-07-31T04:48:59;23.00;;;16.70;;
77944;SDS011;67142;47.404;-1.384;2023-07-31T04:51:25;22.42;;;17.60;;
77944;SDS011;67142;47.404;-1.384;2023-07-31T04:53:51;23.65;;;16.42;;
77944;SDS011;67142;47.404;-1.384;2023-07-31T04:56:17;22.93;;;16.90;;
77944;SDS011;67142;47.404;-1.384;2023-07-31T04:58:43;24.67;;;16.83;;
77944;SDS011;67142;47.404;-1.384;2023-07-31T05:01:09;21.65;;;16.35;;
77944;SDS011;67142;47.404;-1.384;2023-07-31T05:03:35;24.05;;;17.00;;
77944;SDS011;67142;47.404;-1.384;2023-07-31T05:06:01;24.55;;;16.80;;
77944;SDS011;67142;47.404;-1.384;2023-07-31T05:08:27;24.55;;;17.40;;
77944;SDS011;67142;47.404;-1.384;2023-07-31T05:10:53;26.40;;;17.67;;
77944;SDS011;67142;47.404;-1.384;2023-07-31T05:13:19;24.73;;;18.00;;
77944;SDS011;67142;47.404;-1.384;2023-07-31T05:15:45;24.08;;;17.20;;
77944;SDS011;67142;47.404;-1.384;2023-07-31T05:18:11;26.02;;;17.23;;
77944;SDS011;67142;47.404;-1.384;2023-07-31T05:20:37;21.58;;;16.90;;
77944;SDS011;67142;47.404;-1.384;2023-07-31T05:23:03;22.42;;;16.90;;
77944;SDS011;67142;47.404;-1.384;2023-07-31T05:25:29;24.50;;;16.90;;
77944;SDS011;67142;47.404;-1.384;2023-07-31T05:27:57;24.85;;;16.30;;
77944;SDS011;67142;47.404;-1.384;2023-07-31T05:30:23;25.27;;;16.52;;
77944;SDS011;67142;47.404;-1.384;2023-07-31T05:32:49;22.95;;;16.73;;
77944;SDS011;67142;47.404;-1.384;2023-07-31T05:35:15;21.50;;;16.45;;
77944;SDS011;67142;47.404;-1.384;2023-07-31T05:37:41;23.65;;;16.77;;
77944;SDS011;67142;47.404;-1.384;2023-07-31T05:40:07;22.30;;;16.05;;
77944;SDS011;67142;47.404;-1.384;2023-07-31T05:42:33;25.13;;;16.80;;
77944;SDS011;67142;47.404;-1.384;2023-07-31T05:45:00;24.67;;;16.40;;
77944;SDS011;67142;47.404;-1.384;2023-07-31T05:47:26;21.80;;;16.08;;
77944;SDS011;67142;47.404;-1.384;2023-07-31T05:49:52;22.43;;;16.47;;
77944;SDS011;67142;47.404;-1.384;2023-07-31T05:52:18;23.43;;;16.50;;
77944;SDS011;67142;47.404;-1.384;2023-07-31T05:54:44;22.40;;;16.37;;
77944;SDS011;67142;47.404;-1.384;2023-07-31T05:57:11;21.50;;;16.77;;
77944;SDS011;67142;47.404;-1.384;2023-07-31T05:59:37;25.00;;;17.33;;
77944;SDS011;67142;47.404;-1.384;2023-07-31T06:02:03;20.07;;;17.00;;
77944;SDS011;67142;47.404;-1.384;2023-07-31T06:04:29;26.80;;;17.00;;
77944;SDS011;67142;47.404;-1.384;2023-07-31T06:06:55;26.13;;;16.95;;
77944;SDS011;67142;47.404;-1.384;2023-07-31T06:09:22;21.57;;;16.50;;
77944;SDS011;67142;47.404;-1.384;2023-07-31T06:11:48;24.23;;;15.85;;
77944;SDS011;67142;47.404;-1.384;2023-07-31T06:14:14;21.80;;;16.40;;
77944;SDS011;67142;47.404;-1.384;2023-07-31T06:16:40;21.98;;;16.05;;
77944;SDS011;67142;47.404;-1.384;2023-07-31T06:19:06;23.73;;;16.13;;
77944;SDS011;67142;47.404;-1.384;2023-07-31T06:21:32;21.55;;;15.25;;
77944;SDS011;67142;47.404;-1.384;2023-07-31T06:23:59;21.20;;;15.50;;
77944;SDS011;67142;47.404;-1.384;2023-07-31T06:26:25;22.58;;;15.70;;
77944;SDS011;67142;47.404;-1.384;2023-07-31T06:28:51;21.00;;;15.98;;
77944;SDS011;67142;47.404;-1.384;2023-07-31T06:31:17;21.30;;;15.60;;
77944;SDS011;67142;47.404;-1.384;2023-07-31T06:33:47;21.93;;;15.87;;
77944;SDS011;67142;47.404;-1.384;2023-07-31T06:36:13;19.38;;;16.10;;
77944;SDS011;67142;47.404;-1.384;2023-07-31T06:38:39;21.52;;;16.30;;
77944;SDS011;67142;47.404;-1.384;2023-07-31T06:41:05;23.95;;;16.00;;
77944;SDS011;67142;47.404;-1.384;2023-07-31T06:43:31;21.15;;;16.15;;
77944;SDS011;67142;47.404;-1.384;2023-07-31T06:45:59;20.10;;;15.90;;
77944;SDS011;67142;47.404;-1.384;2023-07-31T06:48:25;20.93;;;16.10;;
77944;SDS011;67142;47.404;-1.384;2023-07-31T06:50:51;20.35;;;15.90;;
77944;SDS011;67142;47.404;-1.384;2023-07-31T06:53:17;23.83;;;16.48;;
77944;SDS011;67142;47.404;-1.384;2023-07-31T06:55:43;20.42;;;16.55;;
77944;SDS011;67142;47.404;-1.384;2023-07-31T06:58:09;18.77;;;16.08;;
77944;SDS011;67142;47.404;-1.384;2023-07-31T07:00:35;24.58;;;16.58;;
77944;SDS011;67142;47.404;-1.384;2023-07-31T07:03:01;18.98;;;15.75;;
77944;SDS011;67142;47.404;-1.384;2023-07-31T07:05:27;21.33;;;15.73;;
77944;SDS011;67142;47.404;-1.384;2023-07-31T07:07:53;20.35;;;16.30;;
77944;SDS011;67142;47.404;-1.384;2023-07-31T07:10:19;19.63;;;16.65;;
77944;SDS011;67142;47.404;-1.384;2023-07-31T07:12:46;19.20;;;16.33;;
77944;SDS011;67142;47.404;-1.384;2023-07-31T07:15:12;18.70;;;16.70;;
77944;SDS011;67142;47.404;-1.384;2023-07-31T07:17:38;21.00;;;16.88;;
77944;SDS011;67142;47.404;-1.384;2023-07-31T07:20:04;27.30;;;17.23;;
77944;SDS011;67142;47.404;-1.384;2023-07-31T07:22:30;26.27;;;16.88;;
77944;SDS011;67142;47.404;-1.384;2023-07-31T07:24:56;20.38;;;17.25;;
77944;SDS011;67142;47.404;-1.384;2023-07-31T07:27:22;20.92;;;17.27;;
77944;SDS011;67142;47.404;-1.384;2023-07-31T07:29:49;21.50;;;17.13;;
77944;SDS011;67142;47.404;-1.384;2023-07-31T07:32:16;21.10;;;16.15;;
77944;SDS011;67142;47.404;-1.384;2023-07-31T07:34:43;20.65;;;16.17;;
77944;SDS011;67142;47.404;-1.384;2023-07-31T07:37:09;17.85;;;15.95;;
77944;SDS011;67142;47.404;-1.384;2023-07-31T07:39:35;19.15;;;15.93;;
77944;SDS011;67142;47.404;-1.384;2023-07-31T07:42:01;20.27;;;16.10;;
77944;SDS011;67142;47.404;-1.384;2023-07-31T07:44:28;22.07;;;16.20;;
77944;SDS011;67142;47.404;-1.384;2023-07-31T07:46:54;18.63;;;15.73;;
77944;SDS011;67142;47.404;-1.384;2023-07-31T07:49:20;19.08;;;16.08;;
77944;SDS011;67142;47.404;-1.384;2023-07-31T07:51:47;18.05;;;15.77;;
77944;SDS011;67142;47.404;-1.384;2023-07-31T07:54:14;17.90;;;15.90;;
77944;SDS011;67142;47.404;-1.384;2023-07-31T07:56:41;18.48;;;16.67;;
77944;SDS011;67142;47.404;-1.384;2023-07-31T07:59:08;18.17;;;16.17;;
77944;SDS011;67142;47.404;-1.384;2023-07-31T08:01:34;18.50;;;15.43;;
77944;SDS011;67142;47.404;-1.384;2023-07-31T08:04:00;19.58;;;15.45;;
77944;SDS011;67142;47.404;-1.384;2023-07-31T08:06:26;16.98;;;15.18;;
77944;SDS011;67142;47.404;-1.384;2023-07-31T08:08:52;18.52;;;16.52;;
77944;SDS011;67142;47.404;-1.384;2023-07-31T08:11:18;22.08;;;16.70;;
77944;SDS011;67142;47.404;-1.384;2023-07-31T08:13:44;17.40;;;15.52;;
77944;SDS011;67142;47.404;-1.384;2023-07-31T08:16:10;17.60;;;15.70;;
77944;SDS011;67142;47.404;-1.384;2023-07-31T08:18:36;17.70;;;16.00;;
77944;SDS011;67142;47.404;-1.384;2023-07-31T08:21:02;16.85;;;15.23;;
77944;SDS011;67142;47.404;-1.384;2023-07-31T08:23:28;18.73;;;16.75;;
77944;SDS011;67142;47.404;-1.384;2023-07-31T08:25:54;18.33;;;16.55;;
77944;SDS011;67142;47.404;-1.384;2023-07-31T08:28:20;18.15;;;16.23;;
77944;SDS011;67142;47.404;-1.384;2023-07-31T08:30:46;18.25;;;16.30;;
77944;SDS011;67142;47.404;-1.384;2023-07-31T08:33:12;18.88;;;16.92;;
77944;SDS011;67142;47.404;-1.384;2023-07-31T08:35:38;18.40;;;16.60;;
77944;SDS011;67142;47.404;-1.384;2023-07-31T08:38:04;17.73;;;16.03;;
77944;SDS011;67142;47.404;-1.384;2023-07-31T08:40:30;18.60;;;16.80;;
77944;SDS011;67142;47.404;-1.384;2023-07-31T08:42:56;18.95;;;17.00;;
77944;SDS011;67142;47.404;-1.384;2023-07-31T08:45:27;18.70;;;16.75;;
77944;SDS011;67142;47.404;-1.384;2023-07-31T08:47:53;18.63;;;16.92;;
77944;SDS011;67142;47.404;-1.384;2023-07-31T08:50:21;18.07;;;16.47;;
77944;SDS011;67142;47.404;-1.384;2023-07-31T08:52:48;20.83;;;18.83;;
77944;SDS011;67142;47.404;-1.384;2023-07-31T08:55:15;19.40;;;17.58;;
77944;SDS011;67142;47.404;-1.384;2023-07-31T08:57:41;19.55;;;17.73;;
77944;SDS011;67142;47.404;-1.384;2023-07-31T09:00:08;19.20;;;17.38;;
77944;SDS011;67142;47.404;-1.384;2023-07-31T09:02:38;19.35;;;17.65;;
77944;SDS011;67142;47.404;-1.384;2023-07-31T09:05:07;18.63;;;16.88;;
77944;SDS011;67142;47.404;-1.384;2023-07-31T09:07:34;19.83;;;18.02;;
77944;SDS011;67142;47.404;-1.384;2023-07-31T09:10:01;18.27;;;16.75;;
77944;SDS011;67142;47.404;-1.384;2023-07-31T09:12:27;18.60;;;16.90;;
77944;SDS011;67142;47.404;-1.384;2023-07-31T09:14:53;19.48;;;17.67;;
77944;SDS011;67142;47.404;-1.384;2023-07-31T09:20:16;19.20;;;17.70;;
77944;SDS011;67142;47.404;-1.384;2023-07-31T09:22:42;19.73;;;18.13;;
77944;SDS011;67142;47.404;-1.384;2023-07-31T09:25:22;19.17;;;17.37;;
77944;SDS011;67142;47.404;-1.384;2023-07-31T09:30:20;18.60;;;16.83;;
77944;SDS011;67142;47.404;-1.384;2023-07-31T09:32:47;17.83;;;16.13;;
77944;SDS011;67142;47.404;-1.384;2023-07-31T09:37:39;18.40;;;16.77;;
77944;SDS011;67142;47.404;-1.384;2023-07-31T09:40:06;20.47;;;18.87;;
77944;SDS011;67142;47.404;-1.384;2023-07-31T09:42:32;19.38;;;17.63;;
77944;SDS011;67142;47.404;-1.384;2023-07-31T09:45:09;18.48;;;16.98;;
77944;SDS011;67142;47.404;-1.384;2023-07-31T09:47:35;20.40;;;18.80;;
77944;SDS011;67142;47.404;-1.384;2023-07-31T09:50:01;17.75;;;16.25;;
77944;SDS011;67142;47.404;-1.384;2023-07-31T09:52:32;18.73;;;17.10;;
77944;SDS011;67142;47.404;-1.384;2023-07-31T09:54:58;19.30;;;17.70;;
77944;SDS011;67142;47.404;-1.384;2023-07-31T09:57:24;18.23;;;16.67;;
77944;SDS011;67142;47.404;-1.384;2023-07-31T09:59:51;19.95;;;18.17;;
77944;SDS011;67142;47.404;-1.384;2023-07-31T10:02:20;20.20;;;18.50;;
77944;SDS011;67142;47.404;-1.384;2023-07-31T10:04:47;19.67;;;17.95;;
77944;SDS011;67142;47.404;-1.384;2023-07-31T10:07:16;19.38;;;17.65;;
77944;SDS011;67142;47.404;-1.384;2023-07-31T10:09:43;20.27;;;18.38;;
77944;SDS011;67142;47.404;-1.384;2023-07-31T10:12:10;19.00;;;17.27;;
77944;SDS011;67142;47.404;-1.384;2023-07-31T10:14:38;20.70;;;18.98;;
77944;SDS011;67142;47.404;-1.384;2023-07-31T10:17:04;19.10;;;17.33;;
77944;SDS011;67142;47.404;-1.384;2023-07-31T10:19:31;20.38;;;18.40;;
77944;SDS011;67142;47.404;-1.384;2023-07-31T10:21:58;20.67;;;18.77;;
77944;SDS011;67142;47.404;-1.384;2023-07-31T10:24:24;19.15;;;17.50;;
77944;SDS011;67142;47.404;-1.384;2023-07-31T10:26:51;19.13;;;17.42;;
77944;SDS011;67142;47.404;-1.384;2023-07-31T10:29:17;20.23;;;18.42;;
77944;SDS011;67142;47.404;-1.384;2023-07-31T10:31:45;19.02;;;17.33;;
77944;SDS011;67142;47.404;-1.384;2023-07-31T10:34:11;20.13;;;18.42;;
77944;SDS011;67142;47.404;-1.384;2023-07-31T10:36:37;19.83;;;18.13;;
77944;SDS011;67142;47.404;-1.384;2023-07-31T10:39:04;19.52;;;17.80;;
77944;SDS011;67142;47.404;-1.384;2023-07-31T10:41:30;19.75;;;17.85;;
77944;SDS011;67142;47.404;-1.384;2023-07-31T10:44:00;19.42;;;17.67;;
77944;SDS011;67142;47.404;-1.384;2023-07-31T10:46:29;19.92;;;18.13;;
77944;SDS011;67142;47.404;-1.384;2023-07-31T10:48:59;19.50;;;17.70;;
77944;SDS011;67142;47.404;-1.384;2023-07-31T10:51:32;19.73;;;17.92;;
77944;SDS011;67142;47.404;-1.384;2023-07-31T10:54:12;20.27;;;18.42;;
77944;SDS011;67142;47.404;-1.384;2023-07-31T10:56:40;20.60;;;18.87;;
77944;SDS011;67142;47.404;-1.384;2023-07-31T10:59:06;20.30;;;18.50;;
77944;SDS011;67142;47.404;-1.384;2023-07-31T11:04:21;20.55;;;18.77;;
77944;SDS011;67142;47.404;-1.384;2023-07-31T11:06:55;20.73;;;19.03;;
77944;SDS011;67142;47.404;-1.384;2023-07-31T11:09:22;20.60;;;18.83;;
77944;SDS011;67142;47.404;-1.384;2023-07-31T11:11:48;18.95;;;17.15;;
77944;SDS011;67142;47.404;-1.384;2023-07-31T11:14:16;19.20;;;17.25;;
77944;SDS011;67142;47.404;-1.384;2023-07-31T11:16:42;19.08;;;17.30;;
77944;SDS011;67142;47.404;-1.384;2023-07-31T11:19:08;18.95;;;17.45;;
77944;SDS011;67142;47.404;-1.384;2023-07-31T11:21:34;18.85;;;17.15;;
77944;SDS011;67142;47.404;-1.384;2023-07-31T11:24:01;19.17;;;17.48;;
77944;SDS011;67142;47.404;-1.384;2023-07-31T11:26:27;18.93;;;17.13;;
77944;SDS011;67142;47.404;-1.384;2023-07-31T11:28:53;19.80;;;18.00;;
77944;SDS011;67142;47.404;-1.384;2023-07-31T11:31:19;19.17;;;17.38;;
77944;SDS011;67142;47.404;-1.384;2023-07-31T11:33:45;19.05;;;17.25;;
77944;SDS011;67142;47.404;-1.384;2023-07-31T11:36:15;20.15;;;18.27;;
77944;SDS011;67142;47.404;-1.384;2023-07-31T11:38:41;19.15;;;17.35;;
77944;SDS011;67142;47.404;-1.384;2023-07-31T11:41:07;18.90;;;17.20;;
77944;SDS011;67142;47.404;-1.384;2023-07-31T11:43:34;19.17;;;17.35;;
77944;SDS011;67142;47.404;-1.384;2023-07-31T11:46:01;20.27;;;18.27;;
77944;SDS011;67142;47.404;-1.384;2023-07-31T11:48:28;19.67;;;17.98;;
77944;SDS011;67142;47.404;-1.384;2023-07-31T11:50:58;18.90;;;17.30;;
77944;SDS011;67142;47.404;-1.384;2023-07-31T11:53:26;19.38;;;17.67;;
77944;SDS011;67142;47.404;-1.384;2023-07-31T11:55:52;18.23;;;16.70;;
77944;SDS011;67142;47.404;-1.384;2023-07-31T11:58:19;19.40;;;17.83;;
77944;SDS011;67142;47.404;-1.384;2023-07-31T12:00:45;20.10;;;18.40;;
77944;SDS011;67142;47.404;-1.384;2023-07-31T12:03:12;19.52;;;17.73;;
77944;SDS011;67142;47.404;-1.384;2023-07-31T12:05:38;20.33;;;18.52;;
77944;SDS011;67142;47.404;-1.384;2023-07-31T12:08:08;19.92;;;18.13;;
77944;SDS011;67142;47.404;-1.384;2023-07-31T12:10:35;19.60;;;18.00;;
77944;SDS011;67142;47.404;-1.384;2023-07-31T12:13:05;19.10;;;17.40;;
77944;SDS011;67142;47.404;-1.384;2023-07-31T12:15:38;19.27;;;17.77;;
77944;SDS011;67142;47.404;-1.384;2023-07-31T12:18:06;20.45;;;18.85;;
77944;SDS011;67142;47.404;-1.384;2023-07-31T12:20:32;21.10;;;19.40;;
77944;SDS011;67142;47.404;-1.384;2023-07-31T12:22:58;19.08;;;17.58;;
77944;SDS011;67142;47.404;-1.384;2023-07-31T12:25:32;20.42;;;18.70;;
77944;SDS011;67142;47.404;-1.384;2023-07-31T12:28:05;19.40;;;17.80;;
77944;SDS011;67142;47.404;-1.384;2023-07-31T12:30:33;19.38;;;17.77;;
77944;SDS011;67142;47.404;-1.384;2023-07-31T12:33:05;18.83;;;17.23;;
77944;SDS011;67142;47.404;-1.384;2023-07-31T12:35:35;19.33;;;17.83;;
77944;SDS011;67142;47.404;-1.384;2023-07-31T12:38:02;19.10;;;17.60;;
77944;SDS011;67142;47.404;-1.384;2023-07-31T12:40:28;19.33;;;17.73;;
77944;SDS011;67142;47.404;-1.384;2023-07-31T12:42:54;20.20;;;18.50;;
77944;SDS011;67142;47.404;-1.384;2023-07-31T12:45:20;19.73;;;18.10;;
77944;SDS011;67142;47.404;-1.384;2023-07-31T12:47:46;19.85;;;18.05;;
77944;SDS011;67142;47.404;-1.384;2023-07-31T12:50:12;19.52;;;17.83;;
77944;SDS011;67142;47.404;-1.384;2023-07-31T12:52:38;19.30;;;17.73;;
77944;SDS011;67142;47.404;-1.384;2023-07-31T12:55:04;18.50;;;16.90;;
77944;SDS011;67142;47.404;-1.384;2023-07-31T12:57:30;19.37;;;17.73;;
77944;SDS011;67142;47.404;-1.384;2023-07-31T12:59:56;18.63;;;17.13;;
77944;SDS011;67142;47.404;-1.384;2023-07-31T13:02:22;19.60;;;18.00;;
77944;SDS011;67142;47.404;-1.384;2023-07-31T13:04:49;20.00;;;18.25;;
77944;SDS011;67142;47.404;-1.384;2023-07-31T13:07:16;20.00;;;18.38;;
77944;SDS011;67142;47.404;-1.384;2023-07-31T13:09:42;19.35;;;17.80;;
77944;SDS011;67142;47.404;-1.384;2023-07-31T13:12:08;18.08;;;16.58;;
77944;SDS011;67142;47.404;-1.384;2023-07-31T13:14:34;20.02;;;18.27;;
77944;SDS011;67142;47.404;-1.384;2023-07-31T13:17:00;20.55;;;18.85;;
77944;SDS011;67142;47.404;-1.384;2023-07-31T13:19:26;21.05;;;19.20;;
77944;SDS011;67142;47.404;-1.384;2023-07-31T13:21:52;20.37;;;18.60;;
77944;SDS011;67142;47.404;-1.384;2023-07-31T13:24:18;20.33;;;18.63;;
77944;SDS011;67142;47.404;-1.384;2023-07-31T13:26:44;21.30;;;19.50;;
77944;SDS011;67142;47.404;-1.384;2023-07-31T13:29:10;19.95;;;18.08;;
77944;SDS011;67142;47.404;-1.384;2023-07-31T13:31:36;20.35;;;18.75;;
77944;SDS011;67142;47.404;-1.384;2023-07-31T13:34:02;20.80;;;18.77;;
77944;SDS011;67142;47.404;-1.384;2023-07-31T13:36:28;19.45;;;17.67;;
77944;SDS011;67142;47.404;-1.384;2023-07-31T13:38:54;19.67;;;17.58;;
77944;SDS011;67142;47.404;-1.384;2023-07-31T13:41:20;20.30;;;18.33;;
77944;SDS011;67142;47.404;-1.384;2023-07-31T13:43:46;20.60;;;18.42;;
77944;SDS011;67142;47.404;-1.384;2023-07-31T13:46:12;24.23;;;19.58;;
77944;SDS011;67142;47.404;-1.384;2023-07-31T13:48:38;20.15;;;18.23;;
77944;SDS011;67142;47.404;-1.384;2023-07-31T13:51:04;20.75;;;17.83;;
77944;SDS011;67142;47.404;-1.384;2023-07-31T13:53:30;20.80;;;18.70;;
77944;SDS011;67142;47.404;-1.384;2023-07-31T13:55:56;20.73;;;18.83;;
77944;SDS011;67142;47.404;-1.384;2023-07-31T13:58:22;20.67;;;18.75;;
77944;SDS011;67142;47.404;-1.384;2023-07-31T14:00:49;20.35;;;18.38;;
77944;SDS011;67142;47.404;-1.384;2023-07-31T14:03:15;21.83;;;19.80;;
77944;SDS011;67142;47.404;-1.384;2023-07-31T14:05:41;21.55;;;19.45;;
77944;SDS011;67142;47.404;-1.384;2023-07-31T14:08:07;21.40;;;19.50;;
77944;SDS011;67142;47.404;-1.384;2023-07-31T14:10:33;21.27;;;19.37;;
77944;SDS011;67142;47.404;-1.384;2023-07-31T14:12:59;20.70;;;18.77;;
77944;SDS011;67142;47.404;-1.384;2023-07-31T14:15:25;21.25;;;19.35;;
77944;SDS011;67142;47.404;-1.384;2023-07-31T14:17:51;21.48;;;19.38;;
77944;SDS011;67142;47.404;-1.384;2023-07-31T14:20:17;21.45;;;19.40;;
77944;SDS011;67142;47.404;-1.384;2023-07-31T14:22:43;21.20;;;19.10;;
77944;SDS011;67142;47.404;-1.384;2023-07-31T14:25:09;21.70;;;19.40;;